Time;durP1;ratioP1;P1;durP2;ratioP2;P2;SDS_P1;SDS_P2;PMS_P1;PMS_P2;Temp;Humidity;BMP_temperature;BMP_pressure;BME280_temperature;BME280_humidity;BME280_pressure;Samples;Min_cycle;Max_cycle;Signal;HPM_P1;HPM_P2
2022/05/30 00:01:54;;;;;;;14.23;8.52;;;;;;;17.29;73.54;100829.06;5005317;28;102498;-54
2022/05/30 00:04:21;;;;;;;13.73;8.23;;;;;;;17.30;73.84;100830.69;5020084;28;102239;-53
2022/05/30 00:06:48;;;;;;;11.95;8.30;;;;;;;17.29;73.81;100826.31;5008552;28;103871;-54
2022/05/30 00:09:15;;;;;;;10.25;8.48;;;;;;;17.29;73.84;100807.88;5001108;28;102223;-53
2022/05/30 00:11:42;;;;;;;9.35;8.25;;;;;;;17.30;74.03;100814.19;5011638;28;102385;-54
2022/05/30 00:14:08;;;;;;;12.02;8.38;;;;;;;17.30;73.65;100797.66;4999274;28;102137;-54
2022/05/30 00:16:45;;;;;;;9.57;8.23;;;;;;;17.32;73.86;100800.94;4998636;28;103803;-53
2022/05/30 00:19:13;;;;;;;10.00;8.25;;;;;;;17.31;73.98;100793.81;4998451;28;102151;-54
2022/05/30 00:21:40;;;;;;;;;;;;;;;17.31;73.56;100793.81;4999256;28;101893;-54
2022/05/30 00:24:07;;;;;;;8.65;7.47;;;;;;;17.30;73.87;100781.16;4995527;28;102205;-54
2022/05/30 00:26:34;;;;;;;10.50;7.85;;;;;;;17.29;73.50;100774.84;4998156;28;104115;-53
2022/05/30 00:29:00;;;;;;;11.23;8.38;;;;;;;17.29;73.89;100771.31;4991494;28;102350;-54
2022/05/30 00:31:27;;;;;;;10.70;7.82;;;;;;;17.29;73.92;100760.31;4981152;28;102142;-54
2022/05/30 00:33:53;;;;;;;9.68;7.88;;;;;;;17.28;73.73;100756.75;4998822;28;102274;-54
2022/05/30 00:36:21;;;;;;;10.32;7.72;;;;;;;17.28;74.09;100765.00;4981747;28;103963;-53
2022/05/30 00:38:48;;;;;;;11.77;8.20;;;;;;;17.28;73.75;100758.69;4988066;28;102731;-55
2022/05/30 00:41:16;;;;;;;10.23;8.10;;;;;;;17.29;73.71;100761.09;4990205;28;101995;-54
2022/05/30 00:43:47;;;;;;;11.32;8.35;;;;;;;17.29;73.71;100757.56;4985494;28;102171;-53
2022/05/30 00:46:15;;;;;;;11.20;8.43;;;;;;;17.28;73.72;100756.75;5010119;28;103934;-53
2022/05/30 00:48:51;;;;;;;11.30;8.43;;;;;;;17.29;74.08;100757.56;5000576;28;102177;-54
2022/05/30 00:51:22;;;;;;;9.85;8.18;;;;;;;17.28;73.68;100758.69;5007102;28;102122;-54
2022/05/30 00:53:52;;;;;;;8.98;7.88;;;;;;;17.29;74.17;100752.03;5018857;28;102902;-53
2022/05/30 00:56:20;;;;;;;8.73;7.55;;;;;;;17.29;73.43;100752.84;5017987;28;104903;-53
2022/05/30 00:58:48;;;;;;;11.63;8.57;;;;;;;17.29;73.76;100752.84;4997396;28;102215;-53
2022/05/30 01:01:16;;;;;;;9.43;8.00;;;;;;;17.29;73.92;100752.03;4998009;28;102352;-54
2022/05/30 01:06:36;;;;;;;11.05;8.35;;;;;;;17.28;73.67;100744.94;5003007;28;103953;-53
2022/05/30 01:09:07;;;;;;;9.45;8.15;;;;;;;17.28;73.67;100747.69;5011216;28;102260;-54
2022/05/30 01:11:51;;;;;;;10.73;8.25;;;;;;;17.29;73.93;100754.78;5013685;28;102267;-54
2022/05/30 01:14:18;;;;;;;12.73;9.07;;;;;;;17.28;73.71;100753.19;4997705;28;102090;-54
2022/05/30 01:16:45;;;;;;;10.93;8.10;;;;;;;17.28;73.85;100764.19;5009133;28;103910;-53
2022/05/30 01:19:24;;;;;;;11.13;7.75;;;;;;;17.28;73.99;100769.69;5012511;28;101962;-54
2022/05/30 01:22:08;;;;;;;9.13;8.00;;;;;;;17.28;73.95;100761.44;4999814;28;102413;-54
2022/05/30 01:24:46;;;;;;;8.05;7.22;;;;;;;17.28;73.56;100761.44;5018495;28;102067;-53
2022/05/30 01:27:26;;;;;;;13.20;8.60;;;;;;;17.28;73.56;100755.94;4993834;28;104131;-53
2022/05/30 01:29:59;;;;;;;13.05;7.32;;;;;;;17.27;74.06;100748.78;5007792;28;102335;-53
2022/05/30 01:32:25;;;;;;;9.90;7.68;;;;;;;17.28;73.69;100733.94;5018023;28;102418;-54
2022/05/30 01:34:52;;;;;;;8.43;6.97;;;;;;;17.27;73.78;100733.13;5015662;28;103620;-54
2022/05/30 01:37:18;;;;;;;10.13;7.40;;;;;;;17.26;73.58;100720.47;5011413;28;103865;-54
2022/05/30 01:39:45;;;;;;;11.23;7.63;;;;;;;17.26;73.61;100725.16;4998087;28;102251;-53
2022/05/30 01:42:13;;;;;;;8.65;7.18;;;;;;;17.27;73.72;100726.78;4997767;28;102429;-53
2022/05/30 01:44:40;;;;;;;11.50;8.00;;;;;;;17.26;73.98;100716.91;4998373;28;101995;-53
2022/05/30 01:47:08;;;;;;;11.25;7.30;;;;;;;17.27;73.77;100721.28;4995067;28;104204;-53
2022/05/30 01:49:34;;;;;;;11.80;7.60;;;;;;;17.27;73.44;100724.03;4996844;28;102466;-53
2022/05/30 01:52:03;;;;;;;11.65;8.25;;;;;;;17.27;73.84;100729.53;4996359;28;101977;-54
2022/05/30 01:54:30;;;;;;;9.60;7.72;;;;;;;17.28;73.59;100740.25;4998916;28;102413;-52
2022/05/30 01:56:57;;;;;;;11.02;7.88;;;;;;;17.29;73.46;100752.84;4988440;28;103777;-53
2022/05/30 01:59:23;;;;;;;9.07;7.00;;;;;;;17.29;73.26;100746.53;4977029;28;101823;-53
2022/05/30 02:01:50;;;;;;;9.40;8.38;;;;;;;17.29;73.56;100752.03;4985175;28;102236;-53
2022/05/30 02:04:18;;;;;;;11.02;7.15;;;;;;;17.29;72.79;100749.28;4998379;28;102108;-53
2022/05/30 02:06:45;;;;;;;8.87;7.50;;;;;;;17.30;73.08;100748.97;4996404;28;104037;-53
2022/05/30 02:09:12;;;;;;;9.23;7.32;;;;;;;17.31;72.89;100760.81;4997353;28;102040;-53
2022/05/30 02:11:39;;;;;;;8.70;7.68;;;;;;;17.32;72.96;100773.44;4996914;28;102143;-53
2022/05/30 02:14:05;;;;;;;9.00;7.30;;;;;;;17.32;73.41;100767.94;4997068;28;102551;-54
2022/05/30 02:19:20;;;;;;;8.52;6.90;;;;;;;17.34;72.98;100786.84;4996661;28;102492;-53
2022/05/30 02:21:48;;;;;;;10.00;7.45;;;;;;;17.34;72.45;100797.84;4996844;28;102270;-53
2022/05/30 02:24:15;;;;;;;11.20;7.15;;;;;;;17.35;72.71;100805.81;4997873;28;102398;-53
2022/05/30 02:26:42;;;;;;;10.05;7.32;;;;;;;17.34;72.73;100801.41;4996310;28;103823;-54
2022/05/30 02:29:08;;;;;;;9.43;6.88;;;;;;;17.34;72.57;100801.41;4995527;28;102514;-53
2022/05/30 02:31:35;;;;;;;8.82;6.93;;;;;;;17.33;72.20;100797.03;4993047;28;102325;-53
2022/05/30 02:36:49;;;;;;;8.45;7.13;;;;;;;17.32;72.06;100795.44;4981857;28;104012;-54
2022/05/30 02:39:18;;;;;;;11.60;7.53;;;;;;;17.32;72.33;100795.44;4987121;28;102160;-53
2022/05/30 02:41:46;;;;;;;7.93;6.47;;;;;;;17.33;72.42;100790.75;4986980;28;102396;-54
2022/05/30 02:44:14;;;;;;;14.23;6.72;;;;;;;17.31;72.27;100777.31;4977876;28;102430;-53
2022/05/30 02:46:40;;;;;;;16.77;6.18;;;;;;;17.31;72.20;100769.06;4988088;28;103870;-54
2022/05/30 02:49:08;;;;;;;10.07;6.90;;;;;;;17.30;72.50;100764.66;4996886;28;102287;-54
2022/05/30 02:51:36;;;;;;;9.32;6.35;;;;;;;17.29;71.90;100763.06;4995152;28;104757;-54
2022/05/30 02:54:04;;;;;;;10.00;6.90;;;;;;;17.29;72.02;100760.31;4996589;28;102016;-54
2022/05/30 02:56:31;;;;;;;10.00;6.60;;;;;;;17.30;72.54;100764.66;4995960;28;103924;-53
2022/05/30 02:58:59;;;;;;;8.25;6.50;;;;;;;17.30;72.46;100767.41;4996674;28;102310;-53
2022/05/30 03:01:27;;;;;;;12.88;6.70;;;;;;;17.29;72.42;100765.81;4995632;28;102169;-54
2022/05/30 03:03:53;;;;;;;11.77;6.68;;;;;;;17.28;72.79;100750.44;4994653;28;102161;-54
2022/05/30 03:06:20;;;;;;;9.25;6.30;;;;;;;17.27;72.49;100757.03;4995862;28;103985;-54
2022/05/30 03:08:46;;;;;;;10.63;6.32;;;;;;;17.28;72.29;100761.44;4996969;28;102417;-54
2022/05/30 03:11:14;;;;;;;9.18;7.28;;;;;;;17.27;72.44;100757.88;4996310;28;102314;-53
2022/05/30 03:13:41;;;;;;;9.98;6.68;;;;;;;17.27;72.74;100757.03;4993360;28;102333;-54
2022/05/30 03:16:08;;;;;;;8.13;6.75;;;;;;;17.27;72.56;100748.78;4995425;28;103968;-53
2022/05/30 03:18:34;;;;;;;7.97;6.13;;;;;;;17.26;72.62;100731.47;4996003;28;102682;-53
2022/05/30 03:21:02;;;;;;;8.07;6.53;;;;;;;17.26;73.13;100731.47;4996099;28;102015;-53
2022/05/30 03:23:28;;;;;;;7.10;6.40;;;;;;;17.26;72.91;100725.97;4996626;28;102640;-54
2022/05/30 03:25:55;;;;;;;7.82;6.85;;;;;;;17.26;73.05;100725.16;4996500;28;103834;-54
2022/05/30 03:28:23;;;;;;;8.20;6.72;;;;;;;17.27;72.62;100727.63;4998165;28;102137;-54
2022/05/30 03:30:50;;;;;;;7.40;6.68;;;;;;;17.27;72.84;100724.03;4998889;28;102070;-53
2022/05/30 03:33:17;;;;;;;9.32;6.78;;;;;;;17.26;72.64;100714.16;5000562;28;102270;-53
2022/05/30 03:35:43;;;;;;;10.18;7.03;;;;;;;17.28;73.06;100700.91;4999233;28;103994;-53
2022/05/30 03:38:11;;;;;;;8.38;7.03;;;;;;;17.27;72.59;100711.13;5002622;28;102250;-54
2022/05/30 03:40:39;;;;;;;8.93;6.97;;;;;;;17.28;72.76;100717.44;5002771;28;102158;-53
2022/05/30 03:43:09;;;;;;;9.30;6.20;;;;;;;17.27;72.94;100699.28;5000739;28;102063;-53
2022/05/30 03:45:39;;;;;;;7.10;6.20;;;;;;;17.27;73.03;100682.78;5009744;28;108142;-54
2022/05/30 03:48:09;;;;;;;11.88;7.68;;;;;;;17.28;73.18;100684.41;5016575;28;101964;-54
2022/05/30 03:50:38;;;;;;;7.78;6.80;;;;;;;17.27;73.28;100683.63;4994315;28;101978;-53
2022/05/30 03:53:05;;;;;;;7.53;6.50;;;;;;;17.28;73.11;100673.41;4997212;28;102258;-53
2022/05/30 03:55:34;;;;;;;9.77;7.10;;;;;;;17.28;73.37;100673.41;5010836;28;103921;-53
2022/05/30 03:58:02;;;;;;;9.00;7.70;;;;;;;17.28;73.14;100673.41;4998511;28;102213;-53
2022/05/30 04:00:29;;;;;;;9.50;6.88;;;;;;;17.28;73.43;100673.41;5011254;28;102308;-53
2022/05/30 04:02:57;;;;;;;8.25;7.10;;;;;;;17.27;73.31;100669.03;4991744;28;102146;-54
2022/05/30 04:05:25;;;;;;;9.75;7.32;;;;;;;17.29;73.67;100675.03;5009145;28;103950;-53
2022/05/30 04:07:52;;;;;;;7.97;6.80;;;;;;;17.28;73.20;100670.66;5012070;28;102187;-53
2022/05/30 04:10:18;;;;;;;8.70;7.40;;;;;;;17.28;73.26;100662.41;5012957;28;102173;-53
2022/05/30 04:12:45;;;;;;;7.90;6.82;;;;;;;17.28;72.98;100654.16;5020220;28;102469;-54
2022/05/30 04:15:20;;;;;;;8.82;6.97;;;;;;;17.28;72.90;100651.41;5005715;28;103992;-54
2022/05/30 04:17:49;;;;;;;10.38;7.32;;;;;;;17.28;72.94;100632.16;5007633;28;102152;-53
2022/05/30 04:20:17;;;;;;;10.65;7.43;;;;;;;17.26;72.94;100646.22;4996191;28;102497;-54
2022/05/30 04:22:44;;;;;;;8.87;6.90;;;;;;;17.28;73.42;100656.91;5001614;28;102488;-53
2022/05/30 04:25:11;;;;;;;9.43;7.22;;;;;;;17.29;72.98;100642.03;4994509;28;103867;-53
2022/05/30 04:27:38;;;;;;;9.30;7.22;;;;;;;17.31;73.12;100639.78;4997619;28;102200;-53
2022/05/30 04:30:09;;;;;;;7.55;6.57;;;;;;;17.32;73.07;100660.66;4984938;28;102407;-53
2022/05/30 04:32:36;;;;;;;;;;;;;;;17.32;72.90;100668.91;4996518;28;106432;-53
2022/05/30 04:35:03;;;;;;;8.50;6.78;;;;;;;17.32;72.37;100666.16;4997819;28;104045;-53
2022/05/30 04:37:32;;;;;;;7.63;6.57;;;;;;;17.34;72.43;100666.63;4990357;28;102224;-53
2022/05/30 04:39:59;;;;;;;7.20;6.50;;;;;;;17.35;73.01;100662.78;4988531;28;102174;-54
2022/05/30 04:42:26;;;;;;;9.18;6.35;;;;;;;17.35;72.40;100672.97;4984244;28;102130;-53
2022/05/30 04:44:53;;;;;;;7.60;6.50;;;;;;;17.35;72.81;100662.78;4977788;28;103980;-53
2022/05/30 04:47:19;;;;;;;8.27;6.75;;;;;;;17.36;72.45;100634.13;4991345;28;102011;-53
2022/05/30 04:49:50;;;;;;;7.10;6.50;;;;;;;17.36;72.35;100592.88;4998293;28;102483;-53
2022/05/30 04:52:17;;;;;;;7.10;6.32;;;;;;;17.36;72.26;100543.34;4999252;28;102347;-54
2022/05/30 04:54:45;;;;;;;6.95;6.25;;;;;;;17.39;72.60;100581.22;4997603;28;103888;-53
2022/05/30 04:57:12;;;;;;;6.87;6.17;;;;;;;17.40;72.06;100648.06;4998609;28;102417;-53
2022/05/30 04:59:41;;;;;;;6.88;5.97;;;;;;;17.39;72.27;100636.25;4998017;28;102013;-53
2022/05/30 05:02:09;;;;;;;7.47;6.40;;;;;;;17.39;72.57;100639.00;4982589;28;102126;-54
2022/05/30 05:04:38;;;;;;;9.27;6.47;;;;;;;17.38;72.31;100662.13;4977811;28;104044;-53
2022/05/30 05:07:05;;;;;;;7.82;5.88;;;;;;;17.40;72.56;100659.88;4985903;28;101928;-53
2022/05/30 05:09:40;;;;;;;8.77;6.35;;;;;;;17.41;72.27;100649.66;4997220;28;101856;-54
2022/05/30 05:12:10;;;;;;;7.82;7.03;;;;;;;17.39;72.63;100651.94;4988109;28;102342;-54
2022/05/30 05:14:38;;;;;;;7.32;6.18;;;;;;;17.40;72.56;100668.13;4995981;28;104958;-53
2022/05/30 05:17:06;;;;;;;9.30;6.90;;;;;;;17.40;72.06;100665.38;4995871;28;101812;-53
2022/05/30 05:19:33;;;;;;;9.40;6.90;;;;;;;17.41;72.85;100666.16;4996757;28;102264;-54
2022/05/30 05:22:00;;;;;;;8.35;6.88;;;;;;;17.40;72.26;100659.88;4996888;28;102638;-53
2022/05/30 05:24:27;;;;;;;7.05;6.32;;;;;;;17.42;72.06;100676.06;4991012;28;103912;-54
2022/05/30 05:26:53;;;;;;;8.05;6.40;;;;;;;17.44;72.33;100687.53;5011058;28;102191;-54
2022/05/30 05:29:21;;;;;;;7.10;6.00;;;;;;;17.47;71.68;100697.91;5003682;28;102429;-53
2022/05/30 05:31:48;;;;;;;7.30;6.07;;;;;;;17.49;71.69;100712.16;5014938;28;102149;-53
2022/05/30 05:34:16;;;;;;;8.75;6.15;;;;;;;17.50;72.11;100711.84;5000592;28;103865;-53
2022/05/30 05:36:46;;;;;;;6.97;6.20;;;;;;;17.49;71.63;100717.66;5006675;28;102406;-53
2022/05/30 05:39:14;;;;;;;9.05;6.10;;;;;;;17.48;71.45;100722.34;5007632;28;102288;-52
2022/05/30 05:41:42;;;;;;;9.00;5.90;;;;;;;17.48;71.93;100732.56;5018278;28;102229;-53
2022/05/30 05:44:08;;;;;;;6.85;5.70;;;;;;;17.47;71.47;100740.00;5009992;28;103876;-54
2022/05/30 05:46:37;;;;;;;6.30;5.70;;;;;;;17.46;71.29;100743.88;5011203;28;102560;-53
2022/05/30 05:49:09;;;;;;;7.03;6.07;;;;;;;17.47;71.58;100737.25;5015441;28;102232;-54
2022/05/30 05:51:37;;;;;;;9.65;6.28;;;;;;;17.46;71.79;100740.31;5003342;28;102247;-53
2022/05/30 05:54:06;;;;;;;7.88;5.90;;;;;;;17.45;71.53;100750.50;5010334;28;104014;-53
2022/05/30 05:56:36;;;;;;;7.15;6.45;;;;;;;17.44;71.27;100754.38;5004179;28;102163;-53
2022/05/30 05:59:03;;;;;;;;;;;;;;;17.43;71.22;100762.97;5016755;28;102150;-54
2022/05/30 06:01:32;;;;;;;8.02;6.40;;;;;;;17.43;71.42;100776.72;5005669;28;102062;-53
2022/05/30 06:04:03;;;;;;;6.95;5.88;;;;;;;17.42;71.36;100789.66;4991378;28;104090;-53
2022/05/30 06:06:31;;;;;;;7.85;6.32;;;;;;;17.42;71.28;100783.34;4992226;28;102406;-53
2022/05/30 06:09:01;;;;;;;7.30;6.18;;;;;;;17.41;70.93;100789.97;4985152;28;102324;-53
2022/05/30 06:11:32;;;;;;;7.07;6.35;;;;;;;17.39;70.59;100801.31;4994037;28;103039;-52
2022/05/30 06:13:58;;;;;;;7.50;5.95;;;;;;;17.40;71.16;100807.59;4984442;28;103878;-53
2022/05/30 06:16:27;;;;;;;7.70;6.50;;;;;;;17.41;71.04;100825.72;4995148;28;102469;-53
2022/05/30 06:18:56;;;;;;;7.65;6.68;;;;;;;17.41;70.98;100837.53;4987894;28;102626;-53
2022/05/30 06:21:24;;;;;;;;;;;;;;;17.39;70.68;100845.31;4993762;28;102337;-53
2022/05/30 06:23:52;;;;;;;7.00;6.30;;;;;;;17.41;70.31;100843.03;4994761;28;104092;-53
2022/05/30 06:26:18;;;;;;;7.45;5.88;;;;;;;17.40;71.00;100841.44;4996168;28;102390;-53
2022/05/30 06:28:45;;;;;;;7.03;6.35;;;;;;;17.40;70.17;100840.63;4994754;28;102376;-53
2022/05/30 06:31:14;;;;;;;6.30;5.70;;;;;;;17.41;70.23;100832.03;4996155;28;102181;-54
2022/05/30 06:33:41;;;;;;;7.03;6.32;;;;;;;17.43;70.12;100835.31;4996301;28;103974;-53
2022/05/30 06:36:12;;;;;;;7.53;5.93;;;;;;;17.44;70.12;100819.59;4996300;28;102008;-53
2022/05/30 06:38:41;;;;;;;6.55;5.82;;;;;;;17.46;70.41;100818.16;4985480;28;102826;-53
2022/05/30 06:41:12;;;;;;;6.45;5.75;;;;;;;17.47;70.75;100814.28;4985717;28;102581;-53
2022/05/30 06:43:40;;;;;;;7.20;5.68;;;;;;;17.48;71.24;100810.41;4989601;28;104787;-53
2022/05/30 06:46:06;;;;;;;6.70;6.00;;;;;;;17.49;70.82;100805.69;4979349;28;101817;-53
2022/05/30 06:48:34;;;;;;;7.35;6.35;;;;;;;17.48;70.36;100801.34;4989578;28;102406;-53
2022/05/30 06:51:03;;;;;;;8.38;6.70;;;;;;;17.48;70.35;100788.38;4986586;28;102330;-53
2022/05/30 06:53:30;;;;;;;6.60;5.90;;;;;;;17.48;70.88;100780.13;4989064;28;106577;-53
2022/05/30 06:55:59;;;;;;;9.45;6.35;;;;;;;17.48;70.72;100782.88;4985161;28;102596;-53
2022/05/30 06:58:27;;;;;;;7.72;6.57;;;;;;;17.48;71.15;100776.56;4992856;28;102471;-54
2022/05/30 07:01:00;;;;;;;7.95;6.25;;;;;;;17.47;70.58;100778.50;4986646;28;102632;-53
2022/05/30 07:03:26;;;;;;;8.23;6.18;;;;;;;17.46;71.11;100776.91;4996697;28;103919;-54
2022/05/30 07:05:53;;;;;;;7.57;6.75;;;;;;;17.47;70.78;100784.00;5001019;28;102250;-54
2022/05/30 07:08:23;;;;;;;6.82;5.53;;;;;;;17.48;70.73;100790.31;4998330;28;102076;-53
2022/05/30 07:10:51;;;;;;;6.70;6.00;;;;;;;17.49;70.94;100784.53;4990670;28;102253;-53
2022/05/30 07:13:19;;;;;;;8.82;6.45;;;;;;;17.49;70.98;100795.53;4993695;28;103913;-53
2022/05/30 07:15:48;;;;;;;;;;;;;;;17.48;71.29;100804.88;5008005;28;102056;-53
2022/05/30 07:18:17;;;;;;;6.05;5.53;;;;;;;17.48;71.29;100802.13;4999889;28;102396;-52
2022/05/30 07:20:44;;;;;;;6.60;6.00;;;;;;;17.49;71.26;100808.44;4994693;28;102153;-53
2022/05/30 07:23:11;;;;;;;6.75;6.03;;;;;;;17.50;71.19;100802.66;4991890;28;104369;-53
2022/05/30 07:25:41;;;;;;;8.73;6.00;;;;;;;17.51;70.85;100790.50;4992668;28;102128;-53
2022/05/30 07:28:12;;;;;;;8.93;5.55;;;;;;;17.53;71.37;100785.50;4999737;28;102214;-53
2022/05/30 07:30:41;;;;;;;6.97;5.90;;;;;;;17.56;71.21;100788.75;4988189;28;102904;-53
2022/05/30 07:33:08;;;;;;;8.80;6.85;;;;;;;17.59;70.94;100793.63;4986934;28;104148;-53
2022/05/30 07:35:36;;;;;;;8.77;7.38;;;;;;;17.58;71.26;100792.00;4990478;28;102057;-53
2022/05/30 07:38:03;;;;;;;9.13;6.63;;;;;;;17.58;71.51;100775.50;4990337;28;102100;-53
2022/05/30 07:40:30;;;;;;;7.00;6.30;;;;;;;17.57;70.97;100785.69;4997963;28;102124;-53
2022/05/30 07:42:58;;;;;;;6.40;5.80;;;;;;;17.56;71.36;100797.81;4989423;28;104199;-53
2022/05/30 07:45:25;;;;;;;8.43;6.20;;;;;;;17.56;70.87;100794.25;4992521;28;102206;-53
2022/05/30 07:47:54;;;;;;;6.70;6.10;;;;;;;17.53;70.72;100791.00;4988155;28;102286;-53
2022/05/30 07:50:20;;;;;;;6.68;6.00;;;;;;;17.54;70.70;100805.59;5008818;28;102300;-53
2022/05/30 07:52:47;;;;;;;7.95;5.82;;;;;;;17.53;71.08;100817.72;4994099;28;104013;-53
2022/05/30 07:55:14;;;;;;;7.28;6.57;;;;;;;17.54;70.81;100814.66;5014741;28;102433;-53
2022/05/30 07:57:53;;;;;;;8.20;6.82;;;;;;;17.52;70.79;100810.56;4998236;28;102148;-53
2022/05/30 08:00:22;;;;;;;7.30;6.38;;;;;;;17.52;70.55;100816.88;5001245;28;102291;-53
2022/05/30 08:02:48;;;;;;;8.30;6.30;;;;;;;17.52;71.18;100825.16;5004327;28;103534;-53
2022/05/30 08:05:18;;;;;;;7.57;6.55;;;;;;;17.50;71.05;100821.91;5007114;28;102119;-53
2022/05/30 08:07:47;;;;;;;7.05;6.30;;;;;;;17.51;70.78;100825.47;4992292;28;102201;-53
2022/05/30 08:10:16;;;;;;;8.45;6.75;;;;;;;17.50;70.44;100815.59;4992312;28;102447;-54
2022/05/30 08:12:50;;;;;;;7.38;6.38;;;;;;;17.51;71.04;100808.97;5006777;28;104047;-53
2022/05/30 08:15:17;;;;;;;8.25;6.25;;;;;;;17.51;70.73;100804.25;5009078;28;102000;-53
2022/05/30 08:17:44;;;;;;;7.63;6.93;;;;;;;17.51;70.68;100798.75;4991006;28;102065;-53
2022/05/30 08:20:13;;;;;;;7.40;6.30;;;;;;;17.51;70.77;100800.72;4990548;28;102165;-53
2022/05/30 08:22:41;;;;;;;;;;;;;;;17.52;70.91;100805.06;4999965;28;104043;-53
2022/05/30 08:25:14;;;;;;;7.45;5.85;;;;;;;17.52;71.08;100811.38;5010067;28;102112;-53
2022/05/30 08:27:41;;;;;;;6.95;6.25;;;;;;;17.52;70.97;100810.56;5018486;28;102206;-53
2022/05/30 08:30:09;;;;;;;6.65;6.05;;;;;;;17.51;70.87;100815.28;5002559;28;102652;-53
2022/05/30 08:32:40;;;;;;;6.97;6.23;;;;;;;17.52;70.85;100816.88;4997062;28;104456;-53
2022/05/30 08:35:09;;;;;;;6.45;5.85;;;;;;;17.51;71.02;100796.00;4995108;28;101983;-53
2022/05/30 08:37:37;;;;;;;6.47;5.88;;;;;;;17.52;71.07;100786.63;5000117;28;102121;-53
2022/05/30 08:42:55;;;;;;;6.72;5.95;;;;;;;17.52;70.63;100794.06;5001233;28;108049;-53
2022/05/30 08:45:25;;;;;;;6.57;5.97;;;;;;;17.52;71.10;100794.88;4994384;28;102407;-53
2022/05/30 08:47:54;;;;;;;8.68;6.90;;;;;;;17.50;71.22;100785.34;4988830;28;103388;-53
2022/05/30 08:50:27;;;;;;;;;;;;;;;17.47;71.05;100789.53;5007937;28;102296;-53
2022/05/30 08:53:23;;;;;;;7.53;6.28;;;;;;;17.45;71.97;100808.28;4999116;28;104539;-54
2022/05/30 08:55:57;;;;;;;6.50;5.85;;;;;;;17.45;72.06;100827.53;4973831;28;102355;-54
2022/05/30 08:58:49;;;;;;;9.50;6.82;;;;;;;17.43;71.88;100840.81;4986227;28;102324;-53
2022/05/30 09:01:21;;;;;;;8.52;6.75;;;;;;;17.43;71.44;100840.81;4991295;28;102119;-53
2022/05/30 09:04:16;;;;;;;8.07;7.30;;;;;;;17.43;72.12;100829.81;4996304;28;104083;-54
2022/05/30 09:06:47;;;;;;;8.10;6.50;;;;;;;17.42;71.85;100836.44;5001768;28;102371;-53
2022/05/30 09:09:20;;;;;;;8.05;7.25;;;;;;;17.42;71.49;100830.13;4994553;28;102000;-53
2022/05/30 09:11:53;;;;;;;13.35;6.90;;;;;;;17.41;72.10;100831.22;4998401;28;102427;-53
2022/05/30 09:14:29;;;;;;;8.38;6.53;;;;;;;17.40;72.20;100841.44;4988605;28;108056;-54
2022/05/30 09:17:01;;;;;;;8.40;6.53;;;;;;;17.42;71.96;100843.88;4996390;28;101990;-53
2022/05/30 09:19:28;;;;;;;8.57;6.40;;;;;;;17.39;72.28;100837.06;4994747;28;102333;-54
2022/05/30 09:22:01;;;;;;;9.00;7.05;;;;;;;17.41;72.15;100822.97;4993120;28;102256;-54
2022/05/30 09:24:30;;;;;;;9.32;6.65;;;;;;;17.38;72.59;100813.44;5001793;28;103941;-53
2022/05/30 09:27:00;;;;;;;9.27;6.43;;;;;;;17.38;72.76;100810.69;5004645;28;102048;-53
2022/05/30 09:29:33;;;;;;;10.63;6.13;;;;;;;17.37;73.46;100810.97;4983745;28;102206;-53
2022/05/30 09:32:09;;;;;;;9.13;5.80;;;;;;;17.36;73.26;100815.69;5003132;28;102567;-53
2022/05/30 09:34:45;;;;;;;9.10;6.57;;;;;;;17.35;73.44;100794.81;4991115;28;103984;-53
2022/05/30 09:37:30;;;;;;;8.85;6.20;;;;;;;17.35;73.66;100789.31;4996859;28;102514;-53
2022/05/30 09:39:57;;;;;;;10.18;5.90;;;;;;;17.33;73.79;100788.00;5006074;28;102222;-54
2022/05/30 09:42:28;;;;;;;7.03;5.93;;;;;;;17.32;74.30;100773.44;4987824;28;102464;-54
2022/05/30 09:44:58;;;;;;;9.10;6.32;;;;;;;17.34;73.44;100768.41;4993218;28;103943;-54
2022/05/30 09:47:25;;;;;;;7.85;6.70;;;;;;;17.32;73.99;100754.16;4986510;28;101985;-54
2022/05/30 09:49:54;;;;;;;8.70;6.55;;;;;;;17.32;74.14;100743.16;4991301;28;102310;-54
2022/05/30 09:52:28;;;;;;;7.95;6.38;;;;;;;17.32;74.00;100745.91;4997301;28;102578;-53
2022/05/30 09:54:55;;;;;;;8.48;6.20;;;;;;;17.32;73.77;100753.38;4995295;28;103901;-54
2022/05/30 09:57:28;;;;;;;11.23;6.68;;;;;;;17.34;74.14;100776.66;4980234;28;102300;-54
2022/05/30 09:59:57;;;;;;;8.75;6.00;;;;;;;17.32;74.18;100775.38;4989866;28;102176;-54
2022/05/30 10:02:27;;;;;;;10.02;6.70;;;;;;;17.33;74.28;100764.03;4978730;28;102476;-54
2022/05/30 10:04:56;;;;;;;10.60;6.10;;;;;;;17.32;73.82;100745.91;4979369;28;103958;-54
2022/05/30 10:07:23;;;;;;;8.18;6.72;;;;;;;17.32;74.16;100734.91;4994355;28;102397;-54
2022/05/30 10:09:55;;;;;;;11.27;6.47;;;;;;;17.32;74.03;100726.66;4992473;28;102368;-53
2022/05/30 10:12:33;;;;;;;9.55;7.15;;;;;;;17.32;73.80;100721.16;4995394;28;102420;-53
2022/05/30 10:15:18;;;;;;;9.65;7.13;;;;;;;17.34;73.94;100707.88;4994271;28;103843;-54
2022/05/30 10:17:45;;;;;;;7.95;6.20;;;;;;;17.36;73.45;100708.41;4992317;28;102160;-54
2022/05/30 10:20:20;;;;;;;7.93;7.00;;;;;;;17.38;73.32;100703.41;4991715;28;102707;-54
2022/05/30 10:28:51;;;;;;;6.40;5.80;;;;;;;17.45;72.85;100709.22;4991515;28;102002;-54
2022/05/30 10:31:32;;;;;;;7.53;5.80;;;;;;;17.47;72.83;100709.72;4990756;28;103100;-53
2022/05/30 10:34:43;;;;;;;6.25;5.60;;;;;;;17.47;72.72;100706.97;4990284;28;102166;-53
2022/05/30 10:37:23;;;;;;;6.03;5.43;;;;;;;17.50;72.54;100709.09;4986466;28;108147;-54
2022/05/30 10:40:09;;;;;;;6.13;5.53;;;;;;;17.52;72.96;100706.03;4988020;28;102312;-53
2022/05/30 10:42:43;;;;;;;7.35;6.32;;;;;;;17.51;72.41;100699.72;4978572;28;101971;-54
2022/05/30 10:45:18;;;;;;;6.90;5.50;;;;;;;17.53;72.26;100697.47;4991738;28;102323;-53
2022/05/30 10:47:45;;;;;;;8.13;5.82;;;;;;;17.55;72.13;100683.38;4990230;28;103906;-53
2022/05/30 10:50:18;;;;;;;8.48;5.93;;;;;;;17.56;72.21;100690.50;4996493;28;102560;-53
2022/05/30 10:52:52;;;;;;;5.30;4.63;;;;;;;17.57;72.73;100685.81;4990516;28;102115;-53
2022/05/30 10:55:25;;;;;;;8.35;6.07;;;;;;;17.58;72.58;100699.25;4984010;28;103829;-53
2022/05/30 10:57:59;;;;;;;7.72;5.53;;;;;;;17.58;72.56;100699.25;4986300;28;104073;-53
2022/05/30 11:00:33;;;;;;;6.22;5.63;;;;;;;17.59;72.21;100694.56;4984426;28;102075;-53
2022/05/30 11:03:10;;;;;;;7.35;5.38;;;;;;;17.60;72.20;100675.00;4988083;28;102261;-53
2022/05/30 11:05:44;;;;;;;6.30;5.00;;;;;;;17.60;71.91;100669.47;4987237;28;102175;-53
2022/05/30 11:08:17;;;;;;;5.72;5.22;;;;;;;17.61;71.78;100679.34;4999167;28;103979;-53
2022/05/30 11:10:50;;;;;;;6.13;4.75;;;;;;;17.63;71.87;100684.53;5003497;28;102268;-53
2022/05/30 11:13:29;;;;;;;6.35;5.13;;;;;;;17.63;71.99;100706.53;5003698;28;102296;-53
2022/05/30 11:16:02;;;;;;;6.60;4.70;;;;;;;17.65;71.99;100729.06;5003622;28;102069;-53
2022/05/30 11:18:40;;;;;;;7.50;5.22;;;;;;;17.64;71.57;100727.44;5009074;28;103911;-53
2022/05/30 11:21:15;;;;;;;9.65;4.97;;;;;;;17.64;71.33;100730.19;5013776;28;102143;-53
2022/05/30 11:23:43;;;;;;;5.20;4.60;;;;;;;17.64;71.56;100725.50;5001501;28;102456;-53
2022/05/30 11:26:41;;;;;;;5.43;4.55;;;;;;;17.64;71.79;100717.25;5004525;28;102145;-53
2022/05/30 11:29:24;;;;;;;4.97;4.47;;;;;;;17.65;71.49;100737.31;5006541;28;104072;-53
2022/05/30 11:32:00;;;;;;;6.35;4.82;;;;;;;17.66;71.13;100744.44;4983384;28;102347;-53
2022/05/30 11:34:48;;;;;;;5.65;4.45;;;;;;;17.68;70.87;100755.94;5007810;28;102222;-53
2022/05/30 11:37:49;;;;;;;7.20;4.63;;;;;;;17.68;70.82;100748.50;5007031;28;102588;-53
2022/05/30 11:40:24;;;;;;;6.93;5.45;;;;;;;17.69;70.61;100752.88;5002521;28;104123;-53
2022/05/30 11:43:07;;;;;;;5.72;4.50;;;;;;;17.69;70.72;100760.31;4987651;28;102478;-53
2022/05/30 11:45:50;;;;;;;6.70;4.72;;;;;;;17.69;70.34;100752.88;4984607;28;102396;-53
2022/05/30 11:48:30;;;;;;;5.30;4.40;;;;;;;17.67;70.59;100763.41;5009250;28;102381;-53